Time;durP1;ratioP1;P1;durP2;ratioP2;P2;SDS_P1;SDS_P2;PMS_P1;PMS_P2;Temp;Humidity;BMP_temperature;BMP_pressure;BME280_temperature;BME280_humidity;BME280_pressure;Samples;Min_cycle;Max_cycle;Signal;HPM_P1;HPM_P2
2023/11/12 00:00:28;;;;;;;9.63;7.10;;;7.30;99.90;;;;;;5047607;28;20115;-90
2023/11/12 00:02:54;;;;;;;16.10;7.18;;;7.30;99.90;;;;;;5063390;28;20622;-91
2023/11/12 00:05:20;;;;;;;11.50;7.47;;;7.30;99.90;;;;;;5071171;28;20021;-91
2023/11/12 00:07:46;;;;;;;11.30;7.47;;;7.20;99.90;;;;;;5069585;28;20020;-90
2023/11/12 00:10:11;;;;;;;17.02;7.75;;;7.20;99.90;;;;;;5068786;28;20028;-90
2023/11/12 00:12:38;;;;;;;12.10;8.00;;;7.20;99.90;;;;;;5071048;28;20028;-89
2023/11/12 00:15:04;;;;;;;12.98;8.13;;;7.20;99.90;;;;;;5071431;28;20027;-89
2023/11/12 00:17:30;;;;;;;11.73;7.50;;;7.20;99.90;;;;;;5070025;28;20020;-89
2023/11/12 00:19:56;;;;;;;15.70;8.85;;;7.10;99.90;;;;;;5068498;28;20374;-89
2023/11/12 00:22:21;;;;;;;14.88;8.00;;;7.10;99.90;;;;;;5070464;28;20093;-90
2023/11/12 00:24:47;;;;;;;16.55;8.25;;;7.10;99.90;;;;;;5069131;28;20020;-90
2023/11/12 00:27:12;;;;;;;11.80;8.02;;;7.10;99.90;;;;;;5058699;28;20025;-90
2023/11/12 00:29:39;;;;;;;15.80;8.95;;;7.00;99.90;;;;;;5070460;28;20033;-89
2023/11/12 00:32:05;;;;;;;14.00;9.15;;;7.00;99.90;;;;;;5070753;28;20025;-89
2023/11/12 00:34:31;;;;;;;17.90;8.93;;;7.00;99.90;;;;;;5064887;28;20021;-90
2023/11/12 00:36:56;;;;;;;14.45;8.05;;;7.00;99.90;;;;;;5068765;28;20040;-91
2023/11/12 00:39:22;;;;;;;14.88;8.45;;;6.90;99.90;;;;;;5070324;28;20023;-90
2023/11/12 00:41:47;;;;;;;14.68;9.25;;;6.80;99.90;;;;;;5063827;28;20025;-89
2023/11/12 00:44:13;;;;;;;15.48;9.50;;;6.80;99.90;;;;;;5074241;28;20067;-89
2023/11/12 00:46:40;;;;;;;17.13;9.93;;;6.80;99.90;;;;;;5074091;28;20020;-90
2023/11/12 00:49:06;;;;;;;15.43;9.63;;;6.80;99.90;;;;;;5073671;28;20035;-89
2023/11/12 00:51:33;;;;;;;18.23;10.27;;;6.70;99.90;;;;;;5075496;28;20027;-90
2023/11/12 00:53:58;;;;;;;12.50;9.80;;;6.70;99.90;;;;;;5073731;28;20029;-90
2023/11/12 00:56:24;;;;;;;17.35;10.60;;;6.70;99.90;;;;;;5070419;28;20024;-90
2023/11/12 00:58:49;;;;;;;15.48;9.93;;;6.70;99.90;;;;;;5070503;28;20066;-91
2023/11/12 01:01:15;;;;;;;13.23;9.80;;;6.70;99.90;;;;;;5074256;28;20408;-90
2023/11/12 01:03:41;;;;;;;17.10;9.55;;;6.60;99.90;;;;;;5065219;28;20048;-90
2023/11/12 01:06:07;;;;;;;17.42;10.70;;;6.60;99.90;;;;;;5063098;28;20049;-90
2023/11/12 01:08:34;;;;;;;14.60;10.07;;;6.60;99.90;;;;;;5068343;28;20120;-90
2023/11/12 01:10:59;;;;;;;14.30;10.00;;;6.50;99.90;;;;;;5071059;28;20016;-89
2023/11/12 01:13:25;;;;;;;20.00;10.73;;;6.50;99.90;;;;;;5071532;28;20036;-90
2023/11/12 01:15:52;;;;;;;14.70;9.00;;;6.50;99.90;;;;;;5073699;28;20035;-89
2023/11/12 01:18:17;;;;;;;15.25;10.55;;;6.60;99.90;;;;;;5065518;28;20025;-90
2023/11/12 01:20:43;;;;;;;15.98;9.85;;;6.50;99.90;;;;;;5056170;28;20035;-90
2023/11/12 01:23:09;;;;;;;16.15;10.60;;;6.60;99.90;;;;;;5073422;28;20047;-90
2023/11/12 01:25:35;;;;;;;19.17;11.57;;;6.60;99.90;;;;;;5065559;28;20029;-90
2023/11/12 01:28:02;;;;;;;19.13;11.05;;;6.60;99.90;;;;;;5053696;28;20021;-90
2023/11/12 01:30:28;;;;;;;19.20;10.50;;;6.60;99.90;;;;;;5064743;28;20016;-90
2023/11/12 01:32:53;;;;;;;15.70;11.15;;;6.60;99.90;;;;;;5070382;28;20507;-90
2023/11/12 01:35:19;;;;;;;16.13;10.82;;;6.70;99.90;;;;;;5071057;28;20545;-90
2023/11/12 01:37:45;;;;;;;20.65;11.57;;;6.70;99.90;;;;;;5069881;28;20036;-90
2023/11/12 01:40:14;;;;;;;19.13;11.27;;;6.70;99.90;;;;;;5071808;28;20021;-90
2023/11/12 01:42:39;;;;;;;17.75;11.57;;;6.70;99.90;;;;;;5072433;28;20043;-90
2023/11/12 01:45:05;;;;;;;17.73;11.15;;;6.70;99.90;;;;;;5070301;28;20480;-90
2023/11/12 01:47:31;;;;;;;15.35;11.20;;;6.80;99.90;;;;;;5067571;28;20033;-90
2023/11/12 01:49:57;;;;;;;16.40;10.93;;;6.80;99.90;;;;;;5063632;28;20023;-91
2023/11/12 01:52:23;;;;;;;22.02;11.70;;;6.80;99.90;;;;;;5069136;28;20021;-90
2023/11/12 01:54:49;;;;;;;20.02;11.32;;;6.80;99.90;;;;;;5072000;28;20085;-90
2023/11/12 01:57:15;;;;;;;17.40;11.82;;;6.80;99.90;;;;;;5071925;28;20021;-90
2023/11/12 01:59:41;;;;;;;17.83;12.02;;;6.80;99.90;;;;;;5072488;28;20132;-90
2023/11/12 02:02:07;;;;;;;16.60;11.82;;;6.80;99.90;;;;;;5071944;28;20067;-90
2023/11/12 02:04:32;;;;;;;17.40;11.10;;;6.80;99.90;;;;;;5094298;28;20036;-90
2023/11/12 02:07:01;;;;;;;18.92;12.43;;;6.80;99.90;;;;;;5075517;28;20069;-90
2023/11/12 02:09:28;;;;;;;15.60;10.75;;;6.80;99.90;;;;;;5075063;28;20035;-90
2023/11/12 02:11:54;;;;;;;18.70;11.90;;;6.90;99.90;;;;;;5061031;28;20404;-91
2023/11/12 02:14:21;;;;;;;20.88;11.77;;;6.90;99.90;;;;;;5072941;28;20016;-90
2023/11/12 02:16:48;;;;;;;18.00;11.93;;;6.90;99.90;;;;;;5073606;28;20020;-90
2023/11/12 02:19:27;;;;;;;17.15;12.55;;;6.90;99.90;;;;;;5060084;28;20028;-90
2023/11/12 02:21:54;;;;;;;16.48;11.35;;;6.90;99.90;;;;;;5070314;28;20087;-90
2023/11/12 02:24:20;;;;;;;17.00;12.23;;;6.90;99.90;;;;;;5076946;28;20062;-89
2023/11/12 02:26:47;;;;;;;17.83;11.68;;;6.90;99.90;;;;;;5073564;28;20024;-90
2023/11/12 02:29:13;;;;;;;19.73;12.35;;;6.90;99.90;;;;;;5089404;28;20032;-91
2023/11/12 02:31:39;;;;;;;19.67;13.25;;;6.90;99.90;;;;;;5092878;28;20031;-90
2023/11/12 02:34:06;;;;;;;18.02;12.85;;;6.90;99.90;;;;;;5074723;28;20036;-90
2023/11/12 02:36:34;;;;;;;17.10;12.98;;;6.90;99.90;;;;;;5075200;28;20060;-90
2023/11/12 02:39:00;;;;;;;20.08;13.23;;;6.80;99.90;;;;;;5074407;28;20559;-90
2023/11/12 02:41:25;;;;;;;21.55;14.77;;;6.80;99.90;;;;;;5073053;28;20051;-90
2023/11/12 02:43:52;;;;;;;24.50;16.35;;;6.80;99.90;;;;;;5088369;28;20115;-90
2023/11/12 02:46:17;;;;;;;25.30;16.63;;;6.70;99.90;;;;;;5075463;28;20016;-90
2023/11/12 02:49:10;;;;;;;27.05;18.38;;;6.70;99.90;;;;;;5072373;28;20024;-90
2023/11/12 02:51:36;;;;;;;30.13;17.67;;;6.70;99.90;;;;;;5078790;28;20488;-90
2023/11/12 02:54:03;;;;;;;30.33;19.52;;;6.70;99.90;;;;;;5093169;28;20032;-90
2023/11/12 02:56:28;;;;;;;32.00;19.00;;;6.70;99.90;;;;;;5075049;28;20114;-90
2023/11/12 02:58:54;;;;;;;32.03;21.67;;;6.70;99.90;;;;;;5072874;28;20051;-90
2023/11/12 03:01:20;;;;;;;35.92;23.02;;;6.70;99.90;;;;;;5070938;28;20032;-90
2023/11/12 03:03:45;;;;;;;37.85;22.75;;;6.70;99.90;;;;;;5067015;28;20052;-90
2023/11/12 03:06:12;;;;;;;37.70;23.55;;;6.70;99.90;;;;;;5071802;28;20073;-90
2023/11/12 03:08:39;;;;;;;42.90;25.83;;;6.60;99.90;;;;;;5075914;28;20412;-90
2023/11/12 03:11:05;;;;;;;38.95;25.27;;;6.70;99.90;;;;;;5077747;28;20031;-90
2023/11/12 03:13:30;;;;;;;43.47;26.48;;;6.70;99.90;;;;;;5088905;28;20036;-90
2023/11/12 03:15:56;;;;;;;45.22;27.88;;;6.60;99.90;;;;;;5074269;28;20475;-90
2023/11/12 03:18:22;;;;;;;46.55;28.20;;;6.70;99.90;;;;;;5074849;28;20483;-89
2023/11/12 03:20:48;;;;;;;44.38;26.88;;;6.70;99.90;;;;;;5070948;28;20093;-90
2023/11/12 03:23:13;;;;;;;44.28;27.75;;;6.70;99.90;;;;;;5056997;28;20036;-90
2023/11/12 03:25:39;;;;;;;46.50;28.25;;;6.70;99.90;;;;;;5086918;28;20028;-90
2023/11/12 03:28:05;;;;;;;46.15;30.27;;;6.70;99.90;;;;;;5088528;28;20077;-90
2023/11/12 03:30:30;;;;;;;45.92;26.23;;;6.70;99.90;;;;;;5073421;28;20032;-89
2023/11/12 03:32:57;;;;;;;52.13;28.15;;;6.70;99.90;;;;;;5078597;28;20409;-91
2023/11/12 03:35:23;;;;;;;45.33;28.15;;;6.70;99.90;;;;;;5074398;28;20058;-90
2023/11/12 03:37:48;;;;;;;46.22;27.67;;;6.70;99.90;;;;;;5061316;28;20424;-91
2023/11/12 03:40:14;;;;;;;44.15;27.38;;;6.70;99.90;;;;;;5061704;28;20042;-90
2023/11/12 03:42:40;;;;;;;37.10;24.58;;;6.70;99.90;;;;;;5072038;28;20082;-90
2023/11/12 03:45:06;;;;;;;37.00;23.45;;;6.70;99.90;;;;;;5074210;28;20027;-91
2023/11/12 03:47:31;;;;;;;40.80;23.55;;;6.70;99.90;;;;;;5088569;28;20028;-89
2023/11/12 03:49:57;;;;;;;41.03;23.80;;;6.70;99.90;;;;;;5077001;28;20151;-91
2023/11/12 03:52:23;;;;;;;41.83;24.27;;;6.70;99.90;;;;;;5074406;28;20111;-90
2023/11/12 03:54:48;;;;;;;42.58;23.08;;;6.70;99.90;;;;;;5069014;28;20104;-91
2023/11/12 03:57:14;;;;;;;39.20;24.05;;;6.70;99.90;;;;;;5074178;28;20094;-90
2023/11/12 03:59:39;;;;;;;38.25;21.73;;;6.70;99.90;;;;;;5070828;28;20092;-89
2023/11/12 04:02:05;;;;;;;34.67;22.92;;;6.70;99.90;;;;;;5073935;28;20050;-90
2023/11/12 04:04:31;;;;;;;33.45;21.70;;;6.70;99.90;;;;;;5072183;28;20036;-91
2023/11/12 04:06:57;;;;;;;34.88;21.73;;;6.70;99.90;;;;;;5072343;28;20020;-90
2023/11/12 04:09:22;;;;;;;33.78;22.10;;;6.60;99.90;;;;;;5073462;28;20028;-91
2023/11/12 04:11:48;;;;;;;32.42;20.75;;;6.60;99.90;;;;;;5070943;28;20056;-90
2023/11/12 04:14:14;;;;;;;34.22;22.13;;;6.60;99.90;;;;;;5070968;28;20047;-91
2023/11/12 04:16:40;;;;;;;36.22;20.80;;;6.60;99.90;;;;;;5075819;28;20024;-91
2023/11/12 04:19:07;;;;;;;36.03;19.95;;;6.60;99.90;;;;;;5078010;28;20032;-90
2023/11/12 04:21:34;;;;;;;35.72;20.27;;;6.60;99.90;;;;;;5089068;28;20434;-91
2023/11/12 04:24:00;;;;;;;31.27;19.65;;;6.70;99.90;;;;;;5088666;28;20036;-90
2023/11/12 04:26:25;;;;;;;30.77;20.65;;;6.60;99.90;;;;;;5095786;28;20027;-90
2023/11/12 04:28:51;;;;;;;35.67;19.95;;;6.60;99.90;;;;;;5089025;28;20027;-90
2023/11/12 04:31:17;;;;;;;32.25;20.38;;;6.60;99.90;;;;;;5087896;28;20535;-91
2023/11/12 04:33:43;;;;;;;37.22;20.35;;;6.60;99.90;;;;;;5077382;28;20113;-90
2023/11/12 04:36:08;;;;;;;25.85;17.95;;;6.60;99.90;;;;;;5091421;28;20032;-90
2023/11/12 04:38:34;;;;;;;30.10;19.17;;;6.50;99.90;;;;;;5057885;28;20113;-90
2023/11/12 04:40:59;;;;;;;27.75;18.42;;;6.50;99.90;;;;;;5083997;28;20476;-90
2023/11/12 04:43:25;;;;;;;27.20;18.13;;;6.50;99.90;;;;;;5077390;28;20503;-90
2023/11/12 04:45:50;;;;;;;36.70;19.15;;;6.40;99.90;;;;;;5070649;28;20017;-90
2023/11/12 04:48:16;;;;;;;32.97;17.85;;;6.40;99.90;;;;;;5074112;28;20044;-90
2023/11/12 04:50:42;;;;;;;29.55;18.27;;;6.40;99.90;;;;;;5073810;28;20059;-90
2023/11/12 04:53:08;;;;;;;28.52;17.42;;;6.30;99.90;;;;;;5076521;28;20028;-89
2023/11/12 04:55:34;;;;;;;30.75;17.80;;;6.20;99.90;;;;;;5077140;28;20111;-90
2023/11/12 04:58:01;;;;;;;31.17;18.58;;;6.20;99.90;;;;;;5093723;28;20119;-90
2023/11/12 05:00:27;;;;;;;26.38;17.17;;;6.10;99.90;;;;;;5074907;28;20024;-89
2023/11/12 05:02:53;;;;;;;33.90;16.45;;;6.10;99.90;;;;;;5088938;28;20085;-89
2023/11/12 05:05:18;;;;;;;31.88;17.73;;;6.00;99.90;;;;;;5074315;28;20028;-90
2023/11/12 05:07:44;;;;;;;26.10;16.88;;;6.00;99.90;;;;;;5085603;28;20035;-89
2023/11/12 05:10:11;;;;;;;26.58;16.35;;;5.90;99.90;;;;;;5071387;28;20028;-90
2023/11/12 05:12:38;;;;;;;29.95;17.23;;;5.90;99.90;;;;;;5075690;28;20065;-89
2023/11/12 05:15:05;;;;;;;28.63;16.95;;;5.80;99.90;;;;;;5074526;28;20029;-90
2023/11/12 05:17:31;;;;;;;28.52;16.98;;;5.90;99.90;;;;;;5079657;28;20028;-90
2023/11/12 05:19:56;;;;;;;29.05;16.95;;;5.80;99.90;;;;;;5069742;28;20031;-89
2023/11/12 05:22:22;;;;;;;26.73;16.67;;;5.80;99.90;;;;;;5073904;28;20024;-90
2023/11/12 05:24:51;;;;;;;25.08;16.50;;;5.80;99.90;;;;;;5074133;28;20495;-89
2023/11/12 05:27:17;;;;;;;30.08;17.75;;;5.80;99.90;;;;;;5074981;28;20020;-89
2023/11/12 05:29:43;;;;;;;29.40;16.75;;;5.80;99.90;;;;;;5073298;28;20055;-89
2023/11/12 05:32:08;;;;;;;25.85;16.30;;;5.80;99.90;;;;;;5065076;28;20443;-90
2023/11/12 05:34:34;;;;;;;33.47;17.98;;;5.80;99.90;;;;;;5066139;28;20071;-90
2023/11/12 05:36:59;;;;;;;28.70;17.67;;;5.90;99.90;;;;;;5073965;28;20116;-89
2023/11/12 05:39:25;;;;;;;29.33;17.08;;;5.90;99.90;;;;;;5077645;28;20020;-90
2023/11/12 05:41:51;;;;;;;27.20;17.52;;;5.90;99.90;;;;;;5079305;28;20016;-89
2023/11/12 05:44:16;;;;;;;29.02;17.27;;;5.90;99.90;;;;;;5078039;28;20081;-89
2023/11/12 05:46:42;;;;;;;26.90;17.27;;;5.90;99.90;;;;;;5095709;28;20028;-89
2023/11/12 05:49:07;;;;;;;29.13;17.23;;;5.90;99.90;;;;;;5077765;28;20024;-89
2023/11/12 05:51:33;;;;;;;30.70;16.95;;;5.90;99.90;;;;;;5083077;28;20078;-89
2023/11/12 05:53:59;;;;;;;24.90;17.13;;;5.90;99.90;;;;;;5076087;28;20036;-90
2023/11/12 05:56:24;;;;;;;23.70;16.02;;;5.90;99.90;;;;;;5076500;28;20124;-90
2023/11/12 05:58:50;;;;;;;28.38;16.60;;;5.90;99.90;;;;;;5077655;28;20084;-90
2023/11/12 06:01:17;;;;;;;28.65;17.20;;;5.80;99.90;;;;;;5076718;28;20020;-90
2023/11/12 06:03:43;;;;;;;27.60;16.65;;;5.80;99.90;;;;;;5081841;28;20044;-90
2023/11/12 06:06:08;;;;;;;26.40;16.77;;;5.80;99.90;;;;;;5077124;28;20369;-89
2023/11/12 06:08:34;;;;;;;26.33;17.40;;;5.70;99.90;;;;;;5078103;28;20043;-91
2023/11/12 06:11:00;;;;;;;30.55;17.80;;;5.70;99.90;;;;;;5077600;28;20032;-89
2023/11/12 06:13:25;;;;;;;27.65;17.10;;;5.70;99.90;;;;;;5076222;28;20094;-89
2023/11/12 06:15:51;;;;;;;26.58;16.60;;;5.60;99.90;;;;;;5072549;28;20032;-89
2023/11/12 06:18:16;;;;;;;25.70;16.88;;;5.60;99.90;;;;;;5076373;28;20024;-90
2023/11/12 06:20:42;;;;;;;24.92;17.27;;;5.50;99.90;;;;;;5076247;28;20028;-90
2023/11/12 06:23:07;;;;;;;32.92;18.88;;;5.50;99.90;;;;;;5072488;28;20126;-89
2023/11/12 06:25:33;;;;;;;30.55;18.55;;;5.50;99.90;;;;;;5088860;28;20381;-89
2023/11/12 06:27:58;;;;;;;33.88;18.33;;;5.50;99.90;;;;;;5075395;28;20027;-89
2023/11/12 06:30:24;;;;;;;35.35;19.35;;;5.50;99.90;;;;;;5075623;28;20028;-90
2023/11/12 06:32:51;;;;;;;29.02;17.65;;;5.50;99.90;;;;;;5076978;28;20055;-89
2023/11/12 06:35:16;;;;;;;31.90;18.70;;;5.40;99.90;;;;;;5091023;28;20047;-89
2023/11/12 06:37:42;;;;;;;28.55;17.23;;;5.40;99.90;;;;;;5076679;28;20047;-90
2023/11/12 06:40:08;;;;;;;26.83;16.75;;;5.40;99.90;;;;;;5073399;28;20085;-90
2023/11/12 06:42:34;;;;;;;30.15;18.80;;;5.40;99.90;;;;;;5087509;28;20121;-90
2023/11/12 06:45:00;;;;;;;28.75;17.25;;;5.40;99.90;;;;;;5073966;28;21793;-90
2023/11/12 06:47:25;;;;;;;30.98;19.02;;;5.40;99.90;;;;;;5075515;28;20127;-89
2023/11/12 06:49:51;;;;;;;33.03;19.75;;;5.40;99.90;;;;;;5071964;28;20024;-89
2023/11/12 06:52:17;;;;;;;30.27;18.60;;;5.50;99.90;;;;;;5074403;28;20093;-90
2023/11/12 06:54:43;;;;;;;30.23;19.25;;;5.40;99.90;;;;;;5095855;28;20377;-90
2023/11/12 06:57:08;;;;;;;32.85;18.88;;;5.50;99.90;;;;;;5078892;28;20055;-91
2023/11/12 06:59:34;;;;;;;29.85;18.60;;;5.50;99.90;;;;;;5081565;28;20027;-90
2023/11/12 07:01:59;;;;;;;28.77;17.45;;;5.50;99.90;;;;;;5089027;28;20048;-91
2023/11/12 07:04:25;;;;;;;30.77;17.95;;;5.50;99.90;;;;;;5077157;28;20509;-90
2023/11/12 07:06:51;;;;;;;30.27;18.15;;;5.50;99.90;;;;;;5076986;28;20028;-89
2023/11/12 07:09:16;;;;;;;31.08;17.80;;;5.50;99.90;;;;;;5078182;28;20035;-90
2023/11/12 07:11:42;;;;;;;28.65;18.23;;;5.60;99.90;;;;;;5076830;28;20098;-89
2023/11/12 07:14:07;;;;;;;31.23;19.08;;;5.50;99.90;;;;;;5076928;28;20060;-89
2023/11/12 07:16:33;;;;;;;29.35;19.38;;;5.50;99.90;;;;;;5070285;28;20400;-89
2023/11/12 07:18:58;;;;;;;33.75;20.55;;;5.60;99.90;;;;;;5073766;28;20024;-90
2023/11/12 07:21:25;;;;;;;36.30;22.60;;;5.60;99.90;;;;;;5070826;28;20441;-90
2023/11/12 07:23:51;;;;;;;36.53;22.65;;;5.60;99.90;;;;;;5070081;28;20450;-90
2023/11/12 07:26:16;;;;;;;34.35;21.27;;;5.60;99.90;;;;;;5067389;28;20020;-90
2023/11/12 07:28:42;;;;;;;40.25;23.55;;;5.70;99.90;;;;;;5069537;28;20115;-90
2023/11/12 07:31:08;;;;;;;41.90;23.35;;;5.70;99.90;;;;;;5081143;28;21599;-90
2023/11/12 07:33:34;;;;;;;42.33;25.35;;;5.70;99.90;;;;;;5081492;28;20034;-89
2023/11/12 07:35:59;;;;;;;40.53;25.63;;;5.70;99.90;;;;;;5075487;28;20020;-90
2023/11/12 07:38:25;;;;;;;43.42;25.90;;;5.80;99.90;;;;;;5072622;28;20120;-90
2023/11/12 07:40:50;;;;;;;47.05;25.65;;;5.80;99.90;;;;;;5076975;28;20031;-89
2023/11/12 07:43:16;;;;;;;44.22;27.52;;;5.80;99.90;;;;;;5082136;28;20094;-90
2023/11/12 07:45:42;;;;;;;44.00;25.73;;;5.80;99.90;;;;;;5075589;28;20826;-90
2023/11/12 07:48:08;;;;;;;46.47;28.85;;;5.80;99.90;;;;;;5075152;28;20024;-90
2023/11/12 07:50:35;;;;;;;42.10;25.90;;;5.80;99.90;;;;;;5069105;28;20055;-90
2023/11/12 07:53:02;;;;;;;44.35;27.08;;;5.80;99.90;;;;;;5067876;28;20032;-90
2023/11/12 07:55:29;;;;;;;46.72;28.73;;;5.90;99.90;;;;;;5080573;28;20024;-90
2023/11/12 07:57:55;;;;;;;43.55;27.27;;;6.00;99.90;;;;;;5078371;28;20460;-91
2023/11/12 08:00:22;;;;;;;44.38;26.55;;;6.00;99.90;;;;;;5084515;28;20020;-91
2023/11/12 08:02:48;;;;;;;48.90;27.98;;;6.00;99.90;;;;;;5089495;28;20040;-90
2023/11/12 08:05:14;;;;;;;43.47;27.95;;;6.10;99.90;;;;;;5084870;28;20035;-91
2023/11/12 08:07:40;;;;;;;44.53;28.27;;;6.10;99.90;;;;;;5074667;28;20028;-90
2023/11/12 08:10:08;;;;;;;43.85;26.45;;;6.10;99.90;;;;;;5094763;28;20083;-91
2023/11/12 08:12:39;;;;;;;56.03;26.63;;;6.20;99.90;;;;;;5070891;28;20028;-90
2023/11/12 08:15:06;;;;;;;43.63;24.23;;;6.20;99.90;;;;;;5070737;28;20522;-91
2023/11/12 08:17:32;;;;;;;47.40;25.80;;;6.20;99.90;;;;;;5065820;28;20083;-89
2023/11/12 08:19:58;;;;;;;45.58;24.48;;;6.10;99.90;;;;;;5064751;28;20498;-90
2023/11/12 08:22:23;;;;;;;40.35;23.95;;;6.10;99.90;;;;;;5066195;28;20051;-90
2023/11/12 08:24:49;;;;;;;39.28;22.98;;;6.10;99.90;;;;;;5065377;28;20123;-89
2023/11/12 08:27:15;;;;;;;42.58;21.02;;;6.20;99.90;;;;;;5080718;28;20032;-90
2023/11/12 08:29:40;;;;;;;42.25;22.50;;;6.20;99.90;;;;;;5067989;28;20399;-90
2023/11/12 08:32:06;;;;;;;44.63;21.67;;;6.20;99.90;;;;;;5071340;28;20040;-89
2023/11/12 08:34:32;;;;;;;37.30;21.88;;;6.30;99.90;;;;;;5069654;28;20035;-90
2023/11/12 08:36:58;;;;;;;37.75;22.45;;;6.20;99.90;;;;;;5062001;28;20040;-90
2023/11/12 08:39:24;;;;;;;34.65;20.25;;;6.30;99.90;;;;;;5074263;28;20098;-90
2023/11/12 08:41:50;;;;;;;37.60;20.70;;;6.30;99.90;;;;;;5080194;28;20016;-90
2023/11/12 08:44:15;;;;;;;34.90;19.98;;;6.30;99.90;;;;;;5072001;28;20059;-89
2023/11/12 08:46:42;;;;;;;38.65;20.95;;;6.30;99.90;;;;;;5064207;28;20017;-91
2023/11/12 08:49:08;;;;;;;29.98;17.55;;;6.40;99.90;;;;;;5088958;28;20024;-90
2023/11/12 08:51:37;;;;;;;31.92;19.13;;;6.40;99.90;;;;;;5085598;28;20030;-89
2023/11/12 08:54:03;;;;;;;33.13;18.02;;;6.50;99.90;;;;;;5058947;28;20070;-90
2023/11/12 08:56:29;;;;;;;29.80;16.85;;;6.60;99.90;;;;;;5071362;28;20050;-90
2023/11/12 08:58:59;;;;;;;29.63;16.92;;;6.50;99.90;;;;;;5064293;28;20040;-91
2023/11/12 09:01:24;;;;;;;28.00;16.67;;;6.50;99.90;;;;;;5070724;28;20383;-90
2023/11/12 09:03:52;;;;;;;27.60;16.10;;;6.50;99.90;;;;;;5072424;28;20124;-92
2023/11/12 09:06:18;;;;;;;27.00;16.67;;;6.50;99.90;;;;;;5083101;28;20116;-90
2023/11/12 09:08:45;;;;;;;26.50;15.02;;;6.50;99.90;;;;;;5081168;28;20032;-89
2023/11/12 09:11:12;;;;;;;26.08;14.95;;;6.50;99.90;;;;;;5076825;28;20032;-91
2023/11/12 09:13:37;;;;;;;23.70;14.60;;;6.40;99.90;;;;;;5076059;28;20122;-91
2023/11/12 09:16:04;;;;;;;25.02;13.38;;;6.30;99.90;;;;;;5073731;28;20053;-90
2023/11/12 09:18:30;;;;;;;23.60;13.15;;;6.20;99.90;;;;;;5074375;28;20024;-90
2023/11/12 09:20:55;;;;;;;24.35;13.68;;;6.20;99.90;;;;;;5068611;28;20031;-89
2023/11/12 09:23:21;;;;;;;25.55;13.77;;;6.20;99.90;;;;;;5074077;28;20077;-89
2023/11/12 09:25:49;;;;;;;29.25;14.77;;;6.30;99.90;;;;;;5079976;28;20082;-89
2023/11/12 09:28:14;;;;;;;27.17;15.10;;;6.30;99.90;;;;;;5078657;28;20032;-90
2023/11/12 09:30:40;;;;;;;25.40;14.52;;;6.40;99.90;;;;;;5077782;28;20526;-89
2023/11/12 09:33:06;;;;;;;25.13;13.63;;;6.50;99.90;;;;;;5069594;28;20024;-89
2023/11/12 09:35:31;;;;;;;54.60;15.07;;;6.50;99.90;;;;;;5084202;28;20099;-89
2023/11/12 09:37:57;;;;;;;22.38;13.10;;;6.60;99.90;;;;;;5073587;28;20099;-90
2023/11/12 09:40:23;;;;;;;24.10;13.50;;;6.60;99.90;;;;;;5062332;28;20063;-89
2023/11/12 09:42:53;;;;;;;26.08;14.00;;;6.60;99.90;;;;;;5062095;28;20037;-89
2023/11/12 09:45:19;;;;;;;29.80;15.88;;;6.60;99.90;;;;;;5068348;28;20031;-89
2023/11/12 09:47:54;;;;;;;32.55;15.50;;;6.70;99.90;;;;;;5067469;28;20404;-90
2023/11/12 09:50:25;;;;;;;42.72;16.05;;;6.70;99.90;;;;;;5071786;28;20021;-88
2023/11/12 09:52:52;;;;;;;23.85;14.00;;;6.70;99.90;;;;;;5067418;28;20021;-89
2023/11/12 09:55:19;;;;;;;22.40;13.63;;;6.70;99.90;;;;;;5080148;28;20025;-87
2023/11/12 09:57:46;;;;;;;24.70;14.63;;;6.80;99.90;;;;;;5078599;28;20121;-90
2023/11/12 10:00:12;;;;;;;23.63;13.23;;;6.80;99.90;;;;;;5092023;28;20026;-89
2023/11/12 10:02:41;;;;;;;26.25;13.77;;;6.90;99.90;;;;;;5073528;28;20067;-91
2023/11/12 10:05:14;;;;;;;33.35;15.70;;;6.90;99.90;;;;;;5072772;28;20761;-93
2023/11/12 10:07:40;;;;;;;25.75;13.60;;;6.80;99.90;;;;;;5072070;28;20400;-90
2023/11/12 10:10:20;;;;;;;21.92;12.65;;;6.70;99.90;;;;;;5059607;28;20036;-90
2023/11/12 10:12:46;;;;;;;26.65;11.95;;;6.80;99.90;;;;;;5079830;28;20306;-91
2023/11/12 10:15:12;;;;;;;22.55;11.88;;;6.80;99.90;;;;;;5066575;28;20396;-90
2023/11/12 10:17:47;;;;;;;21.05;12.32;;;6.90;99.90;;;;;;5061376;28;20073;-91
2023/11/12 10:20:23;;;;;;;21.67;12.45;;;6.90;99.90;;;;;;5087015;28;20483;-90
2023/11/12 10:22:50;;;;;;;24.52;12.88;;;7.00;99.90;;;;;;5086368;28;20097;-89
2023/11/12 10:25:39;;;;;;;21.13;12.80;;;7.00;99.90;;;;;;5071373;28;20028;-89
2023/11/12 10:28:07;;;;;;;20.40;12.48;;;7.10;99.90;;;;;;5054642;28;20123;-90
2023/11/12 10:30:33;;;;;;;22.05;12.57;;;7.10;99.90;;;;;;5073517;28;20028;-89
2023/11/12 10:33:26;;;;;;;22.00;13.30;;;7.10;99.90;;;;;;5072433;28;20107;-90
2023/11/12 10:35:52;;;;;;;20.13;12.95;;;7.20;99.90;;;;;;5069842;28;20528;-90
2023/11/12 10:38:18;;;;;;;20.65;12.13;;;7.10;99.90;;;;;;5073221;28;20036;-89
2023/11/12 10:40:58;;;;;;;17.35;11.35;;;7.20;99.90;;;;;;5074184;28;20504;-90
2023/11/12 10:43:24;;;;;;;21.95;11.10;;;7.30;99.90;;;;;;5073616;28;20132;-89
2023/11/12 10:45:56;;;;;;;17.75;11.25;;;7.30;99.90;;;;;;5071450;28;20113;-89
2023/11/12 10:48:27;;;;;;;21.95;11.80;;;7.30;99.90;;;;;;5082584;28;20032;-90
2023/11/12 10:50:53;;;;;;;23.15;13.20;;;7.30;99.90;;;;;;5073866;28;20047;-89
2023/11/12 10:53:19;;;;;;;22.75;12.98;;;7.30;99.90;;;;;;5072707;28;20040;-89
2023/11/12 10:55:45;;;;;;;19.50;11.98;;;7.40;99.90;;;;;;5073443;28;20111;-90
2023/11/12 10:58:13;;;;;;;19.63;11.25;;;7.40;99.90;;;;;;5071654;28;20024;-90
2023/11/12 11:00:40;;;;;;;19.23;12.05;;;7.50;99.90;;;;;;5075532;28;20057;-89
2023/11/12 11:03:08;;;;;;;20.48;11.45;;;7.60;99.90;;;;;;5072981;28;20048;-90
2023/11/12 11:05:35;;;;;;;17.38;11.88;;;7.60;99.90;;;;;;5067579;28;20046;-90
2023/11/12 11:08:00;;;;;;;19.63;10.65;;;7.70;99.90;;;;;;5072179;28;20081;-90
2023/11/12 11:10:28;;;;;;;19.02;11.75;;;7.80;99.90;;;;;;5057593;28;20028;-89
2023/11/12 11:12:54;;;;;;;25.05;12.60;;;7.80;99.90;;;;;;5072456;28;20746;-90
2023/11/12 11:15:42;;;;;;;17.73;10.90;;;7.80;99.90;;;;;;5069855;28;20099;-90
2023/11/12 11:18:30;;;;;;;23.33;12.30;;;7.90;99.90;;;;;;5073959;28;20025;-89
2023/11/12 11:21:17;;;;;;;17.88;10.25;;;8.00;99.90;;;;;;5084743;28;20031;-90
2023/11/12 11:23:49;;;;;;;16.25;10.10;;;8.00;99.90;;;;;;5070522;28;20194;-89
2023/11/12 11:26:28;;;;;;;15.63;9.57;;;7.90;99.90;;;;;;5063321;28;20377;-90
2023/11/12 11:29:09;;;;;;;17.02;10.38;;;7.90;99.90;;;;;;5074768;28;20225;-90
2023/11/12 11:31:47;;;;;;;14.40;10.00;;;7.90;99.90;;;;;;5076208;28;20020;-90
2023/11/12 11:34:13;;;;;;;16.75;9.30;;;7.90;99.90;;;;;;5077617;28;20073;-89
2023/11/12 11:36:42;;;;;;;15.95;9.88;;;7.90;99.90;;;;;;5073538;28;20024;-91
2023/11/12 11:39:12;;;;;;;16.90;9.43;;;7.90;99.90;;;;;;5075802;28;20131;-89
2023/11/12 11:41:50;;;;;;;13.30;9.15;;;7.90;99.90;;;;;;5074834;28;20548;-90
2023/11/12 11:44:34;;;;;;;16.73;9.73;;;7.90;99.90;;;;;;5073628;28;20374;-90
2023/11/12 11:47:14;;;;;;;15.48;9.68;;;8.00;99.90;;;;;;5078897;28;20074;-90
2023/11/12 11:50:00;;;;;;;13.80;9.07;;;8.10;99.90;;;;;;5086030;28;20384;-89
2023/11/12 11:52:28;;;;;;;15.10;9.85;;;8.20;99.90;;;;;;5081837;28;20040;-89
2023/11/12 11:54:55;;;;;;;16.98;10.35;;;8.30;99.90;;;;;;5072518;28;20047;-89
2023/11/12 11:57:25;;;;;;;25.15;9.25;;;8.40;99.90;;;;;;5063595;28;20532;-91
2023/11/12 11:59:52;;;;;;;15.60;8.75;;;8.40;99.90;;;;;;5077843;28;20051;-89
2023/11/12 12:02:17;;;;;;;17.48;9.43;;;8.40;99.90;;;;;;5077724;28;20129;-90
2023/11/12 12:04:48;;;;;;;14.32;10.45;;;8.40;99.90;;;;;;5074163;28;20090;-90
2023/11/12 12:07:25;;;;;;;14.27;8.90;;;8.40;99.90;;;;;;5064996;28;20024;-91
2023/11/12 12:09:53;;;;;;;14.82;9.13;;;8.50;99.90;;;;;;5068853;28;20029;-91
2023/11/12 12:12:19;;;;;;;13.80;9.50;;;8.60;99.90;;;;;;5068682;28;20024;-90
2023/11/12 12:14:45;;;;;;;15.73;10.23;;;8.70;99.90;;;;;;5065908;28;20082;-90
2023/11/12 12:17:10;;;;;;;17.77;10.13;;;8.70;99.90;;;;;;5073266;28;20432;-89
2023/11/12 12:19:37;;;;;;;19.15;9.27;;;8.60;99.90;;;;;;5063641;28;20035;-90
2023/11/12 12:22:04;;;;;;;15.27;9.95;;;8.70;99.90;;;;;;5061797;28;20503;-89
2023/11/12 12:24:32;;;;;;;17.30;10.48;;;8.70;99.90;;;;;;5065689;28;20074;-89
2023/11/12 12:26:58;;;;;;;14.77;10.07;;;8.80;99.90;;;;;;5078815;28;20036;-89
2023/11/12 12:29:25;;;;;;;17.67;10.80;;;8.80;99.90;;;;;;5073442;28;20059;-89
2023/11/12 12:31:53;;;;;;;19.00;11.05;;;8.80;99.90;;;;;;5072576;28;20024;-90
2023/11/12 12:34:20;;;;;;;14.98;10.38;;;8.80;99.90;;;;;;5063158;28;20032;-91
2023/11/12 12:37:07;;;;;;;18.73;10.07;;;8.80;99.90;;;;;;5082690;28;20063;-89